Time;durP1;ratioP1;P1;durP2;ratioP2;P2;SDS_P1;SDS_P2;PMS_P1;PMS_P2;Temp;Humidity;BMP_temperature;BMP_pressure;BME280_temperature;BME280_humidity;BME280_pressure;Samples;Min_cycle;Max_cycle;Signal;HPM_P1;HPM_P2
2021/04/29 00:02:07;;;;;;;9.93;5.15;;;12.30;46.60;;;-147.08;100.00;65180.75;5012020;28;20046;-56
2021/04/29 00:04:36;;;;;;;13.25;6.80;;;12.20;46.80;;;11.61;100.00;65180.75;5011918;28;20054;-56
2021/04/29 00:07:02;;;;;;;13.40;6.45;;;12.30;47.00;;;11.60;100.00;65180.75;5012048;28;20104;-54
2021/04/29 00:09:32;;;;;;;16.60;7.40;;;12.20;47.00;;;11.59;100.00;65180.75;5011973;28;20124;-53
2021/04/29 00:11:59;;;;;;;12.00;5.93;;;12.20;47.20;;;11.55;100.00;65180.75;5011991;28;20034;-55
2021/04/29 00:14:27;;;;;;;13.00;6.90;;;12.20;47.40;;;11.59;100.00;65180.75;5011499;28;20073;-53
2021/04/29 00:16:56;;;;;;;13.70;8.10;;;12.20;48.10;;;11.63;100.00;65180.75;5011891;28;20168;-54
2021/04/29 00:19:23;;;;;;;11.70;6.70;;;12.30;47.50;;;11.64;100.00;65180.75;5012329;28;20172;-57
2021/04/29 00:21:50;;;;;;;10.88;5.43;;;12.30;47.60;;;11.66;100.00;65180.75;5014081;28;20076;-56
2021/04/29 00:24:17;;;;;;;12.27;6.28;;;12.30;47.50;;;11.56;100.00;65180.75;5015351;28;20049;-55
2021/04/29 00:26:44;;;;;;;15.43;7.28;;;12.20;47.90;;;11.61;100.00;65180.75;5015434;28;20054;-53
2021/04/29 00:29:11;;;;;;;14.68;8.48;;;12.20;47.80;;;11.67;100.00;65180.75;5014665;28;20042;-54
2021/04/29 00:31:38;;;;;;;12.80;7.50;;;12.30;47.60;;;11.71;100.00;65180.75;5015235;28;20500;-54
2021/04/29 00:34:05;;;;;;;14.35;7.60;;;12.40;47.50;;;11.70;100.00;65180.75;5015105;28;20136;-52
2021/04/29 00:36:31;;;;;;;;;;;12.40;47.70;;;11.69;100.00;65180.75;5015712;28;20489;-54
2021/04/29 00:38:58;;;;;;;15.27;8.40;;;12.30;47.60;;;-147.08;100.00;65180.75;5015181;28;19968;-54
2021/04/29 00:41:25;;;;;;;16.45;8.98;;;12.30;47.80;;;-147.08;100.00;65180.75;5015123;28;20037;-53
2021/04/29 00:43:55;;;;;;;13.82;7.30;;;12.30;47.70;;;11.63;100.00;65180.75;5014945;28;20502;-53
2021/04/29 00:46:21;;;;;;;;;;;12.20;47.90;;;11.59;100.00;65180.75;5015353;28;20866;-54
2021/04/29 00:48:48;;;;;;;13.50;7.95;;;12.20;47.90;;;11.58;100.00;65180.75;5014833;28;20023;-55
2021/04/29 00:51:17;;;;;;;15.23;9.07;;;12.20;47.90;;;-147.08;100.00;65180.75;5014877;28;20073;-57
2021/04/29 00:53:46;;;;;;;12.57;6.78;;;12.30;47.90;;;-147.08;100.00;65180.75;5015045;28;20388;-54
2021/04/29 00:56:14;;;;;;;13.48;7.22;;;12.20;48.20;;;11.54;100.00;65180.75;5015025;28;20049;-53
2021/04/29 00:58:40;;;;;;;15.55;7.90;;;12.20;48.40;;;11.40;100.00;65180.75;5014296;28;20095;-51
2021/04/29 01:01:08;;;;;;;14.52;7.07;;;12.10;48.90;;;-147.08;100.00;65180.75;5012960;28;20100;-50
2021/04/29 01:03:46;;;;;;;13.05;7.72;;;11.90;49.40;;;-147.08;100.00;65180.75;5010333;28;20081;-54
2021/04/29 01:06:38;;;;;;;13.85;7.60;;;11.90;49.80;;;-147.08;100.00;65180.75;5014596;28;20042;-54
2021/04/29 01:09:25;;;;;;;13.40;8.27;;;11.90;49.60;;;11.26;100.00;65180.75;5029885;28;20092;-53
2021/04/29 01:12:04;;;;;;;13.95;7.00;;;12.00;49.30;;;11.40;100.00;65180.75;5014042;28;20038;-53
2021/04/29 01:14:32;;;;;;;14.07;6.88;;;12.00;49.20;;;11.42;100.00;65180.75;5010306;28;20405;-52
2021/04/29 01:17:00;;;;;;;13.05;7.93;;;12.10;49.10;;;-147.08;100.00;65180.75;5025780;28;20048;-53
2021/04/29 01:19:40;;;;;;;12.80;6.63;;;12.10;48.80;;;-147.08;100.00;65180.75;5014030;28;20045;-53
2021/04/29 01:22:11;;;;;;;14.55;7.85;;;12.20;48.60;;;12.69;100.00;65180.75;5014452;28;20070;-51
2021/04/29 01:25:02;;;;;;;13.15;8.23;;;12.20;48.50;;;11.48;100.00;65180.75;5013193;28;20062;-52
2021/04/29 01:27:29;;;;;;;11.57;6.50;;;12.20;48.60;;;-147.08;100.00;65180.75;5013966;28;20045;-53
2021/04/29 01:29:56;;;;;;;13.57;8.05;;;12.10;48.50;;;-147.08;100.00;65180.75;5030279;28;20046;-53
2021/04/29 01:32:23;;;;;;;15.55;8.25;;;12.10;48.60;;;11.45;100.00;65180.75;5029596;28;20053;-53
2021/04/29 01:34:50;;;;;;;14.30;7.43;;;12.10;48.70;;;11.38;100.00;65180.75;5014636;28;20045;-57
2021/04/29 01:37:18;;;;;;;11.85;6.78;;;12.10;48.80;;;11.39;100.00;65180.75;5029702;28;20045;-56
2021/04/29 01:39:46;;;;;;;12.00;6.72;;;12.10;49.00;;;-147.08;100.00;65180.75;5013950;28;20108;-54
2021/04/29 01:42:13;;;;;;;12.02;7.43;;;12.10;49.00;;;188.52;100.00;65180.75;5013556;28;20115;-56
2021/04/29 01:44:39;;;;;;;15.02;8.65;;;12.10;49.00;;;-147.08;100.00;65180.75;5029349;28;20044;-54
2021/04/29 01:47:07;;;;;;;12.90;8.07;;;12.00;48.90;;;15.32;100.00;65180.75;5013979;28;20412;-53
2021/04/29 01:49:35;;;;;;;15.73;8.73;;;12.00;49.20;;;11.27;100.00;65180.75;5013348;28;20433;-53
2021/04/29 01:52:02;;;;;;;14.88;9.88;;;11.90;49.40;;;-147.08;100.00;65180.75;5013970;28;20072;-54
2021/04/29 01:54:30;;;;;;;14.13;9.40;;;11.80;49.90;;;20.56;100.00;65180.75;5028516;28;20475;-54
2021/04/29 01:56:57;;;;;;;;;;;11.80;50.00;;;-147.08;100.00;65180.75;5029120;28;20073;-56
2021/04/29 01:59:25;;;;;;;13.73;7.93;;;11.70;50.10;;;11.11;100.00;65180.75;5012095;28;19944;-54
2021/04/29 02:01:52;;;;;;;19.27;9.90;;;11.70;50.30;;;188.52;100.00;65180.75;5013898;28;20061;-54
2021/04/29 02:04:19;;;;;;;11.82;6.82;;;11.60;50.50;;;-147.08;100.00;65180.75;5013451;28;20416;-55
2021/04/29 02:06:46;;;;;;;14.27;9.55;;;11.60;50.90;;;188.52;100.00;65180.75;5013526;28;20073;-55
2021/04/29 02:09:13;;;;;;;20.10;9.07;;;11.60;51.00;;;-147.08;100.00;65180.75;5013517;28;20076;-56
2021/04/29 02:11:53;;;;;;;15.55;9.65;;;11.50;51.20;;;-147.08;100.00;65180.75;5013089;28;20092;-57
2021/04/29 02:14:32;;;;;;;14.38;8.80;;;11.50;51.60;;;188.52;100.00;65180.75;5013473;28;20111;-53
2021/04/29 02:17:05;;;;;;;15.20;8.98;;;11.50;51.80;;;-147.08;100.00;65180.75;5013275;28;20049;-54
2021/04/29 02:19:34;;;;;;;17.67;9.75;;;11.50;51.90;;;-147.08;100.00;65180.75;5013245;28;20200;-53
2021/04/29 02:22:02;;;;;;;14.48;8.68;;;11.40;52.20;;;-147.08;100.00;65180.75;5012064;28;20128;-56
2021/04/29 02:24:32;;;;;;;16.33;9.48;;;11.40;52.50;;;10.69;100.00;84650.84;5028004;28;20045;-54
2021/04/29 02:27:00;;;;;;;14.82;10.07;;;11.40;52.50;;;-147.08;100.00;65180.75;5012055;28;20112;-53
2021/04/29 02:29:27;;;;;;;15.02;9.10;;;11.40;52.80;;;10.72;100.00;84650.84;5011643;28;20402;-55
2021/04/29 02:31:55;;;;;;;15.88;9.63;;;11.30;53.20;;;-147.08;100.00;65180.75;5012971;28;20504;-54
2021/04/29 02:34:22;;;;;;;16.08;9.07;;;11.30;53.80;;;10.58;100.00;84476.38;5011887;28;20546;-54
2021/04/29 02:36:49;;;;;;;16.83;9.88;;;11.30;53.80;;;-147.08;100.00;65180.75;5011780;28;20459;-58
2021/04/29 02:39:16;;;;;;;17.40;9.88;;;11.30;54.20;;;10.61;100.00;85700.97;5011206;28;20042;-55
2021/04/29 02:41:43;;;;;;;16.83;9.88;;;11.20;54.40;;;-147.08;100.00;65180.75;5027993;28;20396;-54
2021/04/29 02:44:21;;;;;;;15.27;9.82;;;11.20;54.60;;;10.56;100.00;65180.75;5026425;28;20073;-55
2021/04/29 02:46:50;;;;;;;16.42;8.82;;;11.20;54.70;;;-147.08;100.00;65180.75;5012660;28;20485;-53
2021/04/29 02:49:17;;;;;;;15.25;9.88;;;11.20;54.80;;;10.56;100.00;84650.84;5011436;28;20042;-53
2021/04/29 02:51:44;;;;;;;15.98;9.82;;;11.20;54.80;;;-147.08;100.00;65180.75;5012772;28;20111;-54
2021/04/29 02:54:18;;;;;;;14.85;8.98;;;11.20;55.10;;;10.60;100.00;84650.84;5026586;28;20034;-55
2021/04/29 02:56:45;;;;;;;18.00;9.68;;;11.20;55.60;;;-147.08;100.00;65180.75;5027911;28;20054;-55
2021/04/29 02:59:12;;;;;;;16.80;10.23;;;11.10;55.90;;;10.51;100.00;85000.25;5012288;28;20050;-54
2021/04/29 03:01:41;;;;;;;15.27;9.32;;;11.10;56.40;;;-147.08;100.00;65180.75;5012763;28;20054;-53
2021/04/29 03:04:09;;;;;;;13.77;9.15;;;11.10;56.40;;;10.45;100.00;65180.75;5011133;28;20054;-54
2021/04/29 03:06:36;;;;;;;15.15;9.10;;;11.20;56.40;;;-147.08;100.00;65180.75;5012357;28;20115;-53
2021/04/29 03:09:06;;;;;;;14.25;7.80;;;11.20;56.50;;;10.53;100.00;84650.84;5011853;28;20054;-55
2021/04/29 03:11:35;;;;;;;16.15;9.60;;;11.20;56.20;;;-147.08;100.00;65180.75;5012225;28;20046;-53
2021/04/29 03:14:02;;;;;;;17.67;9.93;;;11.20;56.50;;;11.38;100.00;65180.75;5012563;28;20042;-54
2021/04/29 03:16:30;;;;;;;19.17;9.40;;;11.20;56.90;;;-147.08;100.00;65180.75;5012141;28;20042;-51
2021/04/29 03:18:56;;;;;;;16.05;10.48;;;11.10;57.00;;;10.52;100.00;84650.84;5012542;28;20065;-51
2021/04/29 03:21:23;;;;;;;19.15;10.18;;;11.20;57.20;;;-147.08;100.00;65180.75;5012057;28;20112;-51
2021/04/29 03:23:50;;;;;;;18.45;10.45;;;11.00;58.10;;;-147.08;100.00;65180.75;5011938;28;20046;-51
2021/04/29 03:26:17;;;;;;;;;;;10.90;58.50;;;-147.08;100.00;65180.75;5012570;28;20123;-50
2021/04/29 03:28:44;;;;;;;19.08;9.93;;;10.90;58.30;;;-147.08;100.00;65180.75;5012267;28;20438;-54
2021/04/29 03:31:10;;;;;;;16.35;9.82;;;11.00;58.30;;;-147.08;100.00;65180.75;5012478;28;20069;-52
2021/04/29 03:33:50;;;;;;;18.80;10.65;;;11.10;58.00;;;-147.08;100.00;65180.75;5012128;28;20057;-54
2021/04/29 03:36:17;;;;;;;16.40;9.57;;;11.00;58.60;;;-147.08;100.00;65180.75;5012348;28;20096;-54
2021/04/29 03:38:52;;;;;;;15.65;8.48;;;10.90;58.90;;;-147.08;100.00;65180.75;5011405;28;20459;-55
2021/04/29 03:41:19;;;;;;;16.70;10.15;;;11.00;58.60;;;-147.08;100.00;65180.75;5011966;28;20050;-55
2021/04/29 03:43:47;;;;;;;17.88;9.45;;;11.00;59.00;;;-147.08;100.00;65180.75;5012014;28;20070;-56
2021/04/29 03:46:13;;;;;;;15.70;9.43;;;11.00;59.10;;;-147.08;100.00;65180.75;5012178;28;20053;-57
2021/04/29 03:48:40;;;;;;;14.73;9.50;;;11.00;59.10;;;-147.08;100.00;65180.75;5012249;28;20077;-54
2021/04/29 03:51:07;;;;;;;16.67;7.78;;;11.00;59.40;;;-147.08;100.00;65180.75;5011373;28;20124;-54
2021/04/29 03:53:34;;;;;;;16.17;9.63;;;11.00;59.40;;;-147.08;100.00;65180.75;5011429;28;20033;-56
2021/04/29 03:56:01;;;;;;;14.95;8.55;;;11.00;59.50;;;-147.08;100.00;65180.75;5015313;28;20042;-54
2021/04/29 03:58:28;;;;;;;13.88;9.00;;;11.10;59.10;;;10.43;100.00;107888.69;5031016;28;20057;-53
2021/04/29 04:00:55;;;;;;;13.35;8.15;;;11.10;59.40;;;-147.08;100.00;65180.75;5015695;28;20132;-56
2021/04/29 04:03:21;;;;;;;16.90;8.95;;;11.20;59.30;;;10.53;100.00;85000.25;5015571;28;20054;-55
2021/04/29 04:05:48;;;;;;;16.70;10.20;;;11.20;59.40;;;-147.08;100.00;65180.75;5015319;28;20062;-53
2021/04/29 04:08:15;;;;;;;15.90;9.77;;;11.20;59.60;;;10.55;100.00;84650.84;5015253;28;20096;-54
2021/04/29 04:10:55;;;;;;;16.95;9.85;;;11.10;59.90;;;-147.08;100.00;65180.75;5015853;28;20128;-56
2021/04/29 04:13:22;;;;;;;14.50;8.30;;;11.00;60.10;;;10.42;100.00;85700.97;5014149;28;20053;-57
2021/04/29 04:15:49;;;;;;;17.00;8.80;;;11.10;60.00;;;-147.08;100.00;65180.75;5015679;28;20050;-51
2021/04/29 04:18:16;;;;;;;14.15;9.00;;;11.10;60.20;;;10.47;100.00;65180.75;5015359;28;20104;-55
2021/04/29 04:20:43;;;;;;;15.38;10.05;;;11.10;60.10;;;-147.08;100.00;65180.75;5014782;28;20452;-53
2021/04/29 04:23:10;;;;;;;13.55;9.25;;;11.10;60.30;;;10.46;100.00;84650.84;5015734;28;20053;-54
2021/04/29 04:25:39;;;;;;;17.40;9.25;;;11.00;60.50;;;-147.08;100.00;65180.75;5015287;28;20092;-55
2021/04/29 04:28:06;;;;;;;17.25;10.60;;;11.00;60.70;;;-147.08;100.00;65180.75;5015675;28;20092;-57
2021/04/29 04:30:32;;;;;;;16.77;10.18;;;10.90;61.30;;;-147.08;100.00;65180.75;5015406;28;20045;-54
2021/04/29 04:32:59;;;;;;;17.00;10.90;;;10.90;61.50;;;-147.08;100.00;65180.75;5014898;28;20455;-57
2021/04/29 04:35:26;;;;;;;;;;;10.90;61.50;;;-147.08;100.00;65180.75;5014984;28;20092;-55
2021/04/29 04:37:53;;;;;;;15.70;9.77;;;10.90;61.80;;;-147.08;100.00;65180.75;5015365;28;19922;-56
2021/04/29 04:40:19;;;;;;;14.68;8.93;;;10.80;61.60;;;-147.08;100.00;65180.75;5014923;28;20098;-56
2021/04/29 04:42:46;;;;;;;19.02;10.02;;;10.90;61.90;;;-147.08;100.00;65180.75;5014959;28;20088;-55
2021/04/29 04:45:13;;;;;;;20.67;10.82;;;10.80;62.00;;;-147.08;100.00;65180.75;5014990;28;20112;-55
2021/04/29 04:47:40;;;;;;;17.40;10.15;;;10.90;62.00;;;-147.08;100.00;65180.75;5014671;28;20092;-54
2021/04/29 04:50:09;;;;;;;16.98;10.82;;;10.90;62.20;;;-147.08;100.00;65180.75;5014424;28;20050;-55
2021/04/29 04:52:35;;;;;;;21.55;10.35;;;10.90;62.00;;;-147.08;100.00;65180.75;5014847;28;20092;-54
2021/04/29 04:55:03;;;;;;;16.02;10.30;;;10.90;62.20;;;-147.08;100.00;65180.75;5014908;28;20056;-53
2021/04/29 04:57:30;;;;;;;18.75;10.73;;;11.00;62.10;;;-147.08;100.00;65180.75;5014504;28;20104;-52
2021/04/29 04:59:57;;;;;;;18.52;9.75;;;10.90;62.10;;;-147.08;100.00;65180.75;5014611;28;20046;-52
2021/04/29 05:02:24;;;;;;;;;;;11.00;62.20;;;-147.08;100.00;65180.75;5015021;28;20468;-53
2021/04/29 05:04:51;;;;;;;19.23;10.38;;;11.00;62.00;;;188.52;100.00;65180.75;5027356;28;19921;-53
2021/04/29 05:07:17;;;;;;;18.38;10.73;;;11.00;62.10;;;-147.08;100.00;65180.75;5014087;28;20069;-54
2021/04/29 05:09:44;;;;;;;19.00;10.57;;;11.10;62.30;;;-147.08;100.00;65180.75;5014426;28;20124;-53
2021/04/29 05:12:12;;;;;;;20.08;9.88;;;11.00;62.20;;;-147.08;100.00;65180.75;5014654;28;20089;-53
2021/04/29 05:14:39;;;;;;;17.23;9.45;;;11.10;62.30;;;10.44;100.00;107888.69;5014188;28;20525;-55
2021/04/29 05:17:06;;;;;;;15.48;10.02;;;11.10;62.50;;;-147.08;100.00;65180.75;5013811;28;20735;-53
2021/04/29 05:19:34;;;;;;;14.98;9.65;;;11.10;62.30;;;10.49;100.00;107888.69;5013544;28;20092;-53
2021/04/29 05:22:01;;;;;;;16.15;10.82;;;11.10;62.70;;;-147.08;100.00;65180.75;5014162;28;20133;-55
2021/04/29 05:24:28;;;;;;;17.73;11.13;;;11.10;62.60;;;10.48;100.00;85700.97;5015211;28;20133;-53
2021/04/29 05:26:55;;;;;;;17.27;10.65;;;11.10;62.70;;;-147.08;100.00;65180.75;5013771;28;20050;-54
2021/04/29 05:29:22;;;;;;;16.02;11.57;;;11.10;63.00;;;10.50;100.00;65180.75;5014212;28;20121;-51
2021/04/29 05:31:48;;;;;;;16.48;11.13;;;11.10;62.90;;;-147.08;100.00;65180.75;5013832;28;20050;-52
2021/04/29 05:34:15;;;;;;;17.92;11.00;;;11.10;62.80;;;-147.08;100.00;65180.75;5013095;28;20061;-56
2021/04/29 05:36:42;;;;;;;13.32;8.48;;;11.10;62.90;;;10.56;100.00;84650.84;5028697;28;20052;-56
2021/04/29 05:39:09;;;;;;;14.57;7.15;;;11.20;62.60;;;-147.08;100.00;65180.75;5013942;28;20085;-57
2021/04/29 05:41:36;;;;;;;19.52;11.00;;;11.30;62.50;;;-147.08;100.00;65180.75;5013734;28;20147;-54
2021/04/29 05:44:03;;;;;;;;;;;11.30;62.60;;;12.69;100.00;65180.75;5013233;28;20073;-56
2021/04/29 05:46:29;;;;;;;18.98;10.43;;;11.30;63.10;;;-147.08;100.00;65180.75;5013179;28;20299;-55
2021/04/29 05:49:02;;;;;;;18.61;11.16;;;11.20;63.60;;;10.65;100.00;84379.69;4509748;28;10001953;-56
2021/04/29 05:51:29;;;;;;;22.85;10.65;;;11.20;64.40;;;-147.08;100.00;65180.75;5014752;28;20050;-56
2021/04/29 05:53:57;;;;;;;16.02;9.20;;;11.20;63.90;;;10.73;100.00;84476.38;5011069;28;20495;-55
2021/04/29 05:56:24;;;;;;;22.58;13.27;;;11.20;64.20;;;-147.08;100.00;65180.75;5011219;28;20464;-52
2021/04/29 05:58:50;;;;;;;;;;;11.20;64.40;;;10.71;100.00;84476.38;5011602;28;20150;-54
2021/04/29 06:01:17;;;;;;;17.10;8.88;;;11.20;64.80;;;-147.08;100.00;65180.75;5009542;28;19961;-56
2021/04/29 06:03:44;;;;;;;16.00;10.18;;;11.20;65.00;;;-147.08;100.00;65180.75;5009381;28;20119;-56
2021/04/29 06:06:11;;;;;;;20.65;11.10;;;11.20;65.30;;;-147.08;100.00;65180.75;5010848;28;20104;-55
2021/04/29 06:08:38;;;;;;;21.52;12.57;;;11.20;65.40;;;10.65;100.00;84650.84;5010693;28;20481;-57
2021/04/29 06:11:05;;;;;;;19.83;10.68;;;11.20;67.10;;;-147.08;100.00;65180.75;5011679;28;20547;-56
2021/04/29 06:13:32;;;;;;;16.40;10.48;;;11.10;67.30;;;10.63;100.00;85000.25;5012823;28;20143;-57
2021/04/29 06:15:58;;;;;;;22.10;10.98;;;11.10;68.60;;;-147.08;100.00;65180.75;5012687;28;20156;-53
2021/04/29 06:18:25;;;;;;;;;;;11.00;69.00;;;10.53;100.00;85000.25;5011892;28;20088;-55
2021/04/29 06:20:52;;;;;;;21.65;13.32;;;11.10;68.50;;;-147.08;100.00;65180.75;5013252;28;19968;-58
2021/04/29 06:23:19;;;;;;;;;;;11.10;69.70;;;10.55;100.00;85000.25;5013478;28;20058;-58
2021/04/29 06:25:45;;;;;;;21.63;13.80;;;11.10;69.70;;;-147.08;100.00;65180.75;5013019;28;20400;-56
2021/04/29 06:28:12;;;;;;;24.80;14.70;;;11.10;70.80;;;10.54;100.00;85000.25;5012668;28;20119;-54
2021/04/29 06:30:41;;;;;;;18.70;12.18;;;11.00;71.00;;;-147.08;100.00;65180.75;5012868;28;20049;-52
2021/04/29 06:33:08;;;;;;;18.15;11.20;;;11.00;71.80;;;10.43;100.00;85700.97;5012102;28;20066;-57
2021/04/29 06:35:35;;;;;;;24.55;14.02;;;10.90;71.60;;;-147.08;100.00;65180.75;5012450;28;20057;-54
2021/04/29 06:38:02;;;;;;;22.80;14.43;;;11.00;71.70;;;10.47;100.00;65180.75;5012799;28;20057;-58
2021/04/29 06:40:29;;;;;;;10.82;4.82;;;11.10;71.90;;;-147.08;100.00;65180.75;5012553;28;20574;-55
2021/04/29 06:42:56;;;;;;;16.10;8.73;;;11.10;71.60;;;-147.08;100.00;65180.75;4910857;28;20104;-55
2021/04/29 06:45:23;;;;;;;;;;;11.00;71.00;;;10.53;100.00;85000.25;4983173;28;20574;-53
2021/04/29 06:47:49;;;;;;;21.25;13.40;;;11.00;71.40;;;-147.08;100.00;65180.75;5024577;28;20414;-58
2021/04/29 06:50:17;;;;;;;23.20;14.52;;;11.10;70.30;;;10.71;100.00;65180.75;5012574;28;20058;-55
2021/04/29 06:52:45;;;;;;;18.40;13.00;;;11.10;71.00;;;-147.08;100.00;65180.75;5011554;28;20100;-55
2021/04/29 06:55:12;;;;;;;18.88;11.35;;;11.10;70.90;;;10.62;100.00;85000.25;5012343;28;20046;-53
2021/04/29 06:57:39;;;;;;;21.13;13.07;;;11.10;70.70;;;-147.08;100.00;65180.75;5012219;28;20069;-54
2021/04/29 07:00:07;;;;;;;22.52;15.02;;;11.20;70.40;;;-147.08;100.00;65180.75;5016831;28;20077;-54
2021/04/29 07:02:34;;;;;;;15.20;8.60;;;11.20;70.70;;;10.70;100.00;84650.84;5012001;28;20100;-53
2021/04/29 07:05:04;;;;;;;18.35;11.00;;;11.20;70.40;;;-147.08;100.00;65180.75;5011355;28;20048;-56
2021/04/29 07:07:31;;;;;;;21.48;14.80;;;11.20;70.40;;;10.73;100.00;65180.75;5011653;28;20041;-56
2021/04/29 07:09:58;;;;;;;23.30;14.13;;;11.20;70.60;;;-147.08;100.00;65180.75;5012462;28;20092;-55
2021/04/29 07:12:24;;;;;;;26.58;15.60;;;11.30;70.80;;;-147.08;100.00;65180.75;5012105;28;20086;-54
2021/04/29 07:14:51;;;;;;;;;;;11.30;71.20;;;-147.08;100.00;65180.75;5012182;28;20070;-55
2021/04/29 07:17:18;;;;;;;22.35;15.60;;;11.20;71.20;;;10.71;100.00;84476.38;5010652;28;19921;-54
2021/04/29 07:19:45;;;;;;;23.42;14.63;;;11.20;71.70;;;-147.08;100.00;65180.75;5012191;28;20496;-55
2021/04/29 07:22:11;;;;;;;;;;;11.10;71.70;;;10.64;100.00;84476.38;5012278;28;20042;-54
2021/04/29 07:24:38;;;;;;;20.25;14.57;;;11.20;71.80;;;-147.08;100.00;65180.75;5012176;28;20418;-56
2021/04/29 07:27:05;;;;;;;24.17;14.60;;;11.20;71.40;;;10.71;100.00;84650.84;5010658;28;20040;-54
2021/04/29 07:29:33;;;;;;;23.98;13.75;;;11.30;71.60;;;-147.08;100.00;65180.75;5011284;28;20048;-55
2021/04/29 07:32:00;;;;;;;;;;;11.20;71.20;;;10.71;100.00;65180.75;5012128;28;20488;-56
2021/04/29 07:34:28;;;;;;;21.25;8.85;;;11.30;70.80;;;-147.08;100.00;65180.75;5011409;28;19957;-54
2021/04/29 07:37:01;;;;;;;22.25;12.60;;;11.30;70.30;;;10.87;100.00;65180.75;5011548;28;20041;-54
2021/04/29 07:39:28;;;;;;;20.42;12.15;;;11.40;70.70;;;-147.08;100.00;65180.75;5011927;28;20034;-54
2021/04/29 07:41:55;;;;;;;;;;;11.30;70.40;;;20.56;100.00;65180.75;5012345;28;20131;-53
2021/04/29 07:44:22;;;;;;;25.67;14.88;;;11.40;70.30;;;-147.08;100.00;65180.75;5011396;28;19921;-55
2021/04/29 07:46:49;;;;;;;26.17;7.90;;;11.40;69.70;;;-147.08;100.00;65180.75;5011782;28;20069;-54
2021/04/29 07:49:16;;;;;;;26.13;16.17;;;11.40;68.60;;;-147.08;100.00;65180.75;5011471;28;20038;-55
2021/04/29 07:51:44;;;;;;;24.40;13.25;;;11.40;68.80;;;-147.08;100.00;65180.75;5011884;28;20485;-54
2021/04/29 07:54:14;;;;;;;23.35;13.27;;;11.40;68.70;;;188.52;100.00;65180.75;5011495;28;20054;-54
2021/04/29 07:56:42;;;;;;;32.40;8.32;;;11.40;68.40;;;-147.08;100.00;65180.75;5026535;28;20524;-52
2021/04/29 07:59:09;;;;;;;24.80;15.48;;;11.30;68.10;;;20.56;100.00;65180.75;5011327;28;20050;-53
2021/04/29 08:01:40;;;;;;;22.48;11.02;;;11.30;69.00;;;10.83;100.00;65180.75;5011737;28;20120;-53
2021/04/29 08:04:07;;;;;;;27.35;13.15;;;11.30;69.10;;;-147.08;100.00;65180.75;5011084;28;20057;-55
2021/04/29 08:06:34;;;;;;;22.33;16.13;;;11.30;68.80;;;10.88;100.00;65180.75;5011118;28;20468;-54
2021/04/29 08:09:01;;;;;;;22.60;14.05;;;11.30;68.80;;;-147.08;100.00;65180.75;5011830;28;20088;-53
2021/04/29 08:11:27;;;;;;;23.17;10.25;;;11.40;68.80;;;-147.08;100.00;65180.75;4663193;28;10000615;-54
2021/04/29 08:13:54;;;;;;;;;;;11.30;68.90;;;-147.08;100.00;65180.75;5010388;28;20119;-56
2021/04/29 08:16:21;;;;;;;24.15;12.88;;;11.30;68.80;;;-147.08;100.00;65180.75;5011030;28;19929;-57
2021/04/29 08:18:49;;;;;;;25.80;13.07;;;11.30;69.40;;;188.52;100.00;65180.75;5011080;28;20095;-59
2021/04/29 08:21:22;;;;;;;24.60;12.38;;;11.30;68.90;;;-147.08;100.00;65180.75;5009787;28;20825;-53
2021/04/29 08:23:48;;;;;;;24.42;16.02;;;11.40;69.70;;;-147.08;100.00;65180.75;5009188;28;20104;-57
2021/04/29 08:26:15;;;;;;;;;;;11.40;69.60;;;-147.08;100.00;65180.75;5009935;28;20054;-55
2021/04/29 08:28:42;;;;;;;24.08;9.95;;;11.30;69.80;;;-147.08;100.00;65180.75;5008578;28;19930;-54
2021/04/29 08:31:08;;;;;;;;;;;11.40;69.40;;;-147.08;100.00;65180.75;5010083;28;20037;-55
2021/04/29 08:33:35;;;;;;;26.95;15.13;;;11.30;69.50;;;-147.08;100.00;65180.75;5009064;28;19961;-53
2021/04/29 08:36:02;;;;;;;;;;;11.40;70.00;;;10.80;100.00;65180.75;5009264;28;20034;-54
2021/04/29 08:38:29;;;;;;;22.58;11.18;;;11.30;70.30;;;10.76;100.00;65180.75;5011108;28;19930;-56
2021/04/29 08:40:55;;;;;;;;;;;11.30;70.50;;;-147.08;100.00;65180.75;5017227;28;20037;-55
2021/04/29 08:43:22;;;;;;;21.00;13.38;;;11.30;70.20;;;10.83;100.00;65180.75;5022295;28;20340;-54
2021/04/29 08:45:49;;;;;;;25.38;12.32;;;11.40;70.40;;;10.81;100.00;65180.75;5014828;28;20090;-53
2021/04/29 08:48:23;;;;;;;25.35;8.68;;;11.30;70.20;;;-147.08;100.00;65180.75;5014942;28;20042;-54
2021/04/29 08:50:50;;;;;;;24.85;13.27;;;11.30;69.60;;;10.84;100.00;65180.75;5014224;28;20076;-57
2021/04/29 08:53:17;;;;;;;25.52;12.45;;;11.40;70.20;;;11.38;100.00;65180.75;5014958;28;20041;-56
2021/04/29 08:55:44;;;;;;;31.38;16.63;;;11.40;70.10;;;11.38;100.00;65180.75;5014265;28;20045;-59
2021/04/29 08:58:12;;;;;;;26.35;8.88;;;11.40;70.30;;;10.80;100.00;65180.75;5013899;28;20399;-56
2021/04/29 09:01:04;;;;;;;28.77;14.93;;;11.30;70.80;;;-147.08;100.00;65180.75;5014386;28;20053;-57
2021/04/29 09:03:34;;;;;;;24.83;14.20;;;11.40;71.20;;;-147.08;100.00;65180.75;5014095;28;20057;-52
2021/04/29 09:06:06;;;;;;;32.30;13.50;;;11.70;70.30;;;15.32;100.00;65180.75;5013804;28;20042;-55
2021/04/29 09:08:36;;;;;;;26.85;14.45;;;11.90;70.30;;;12.27;100.00;65180.75;5014092;28;20084;-52
2021/04/29 09:11:18;;;;;;;22.60;12.88;;;11.80;70.10;;;-147.08;100.00;65180.75;5014005;28;20484;-54
2021/04/29 09:14:00;;;;;;;21.67;9.98;;;11.70;69.80;;;10.67;100.00;65180.75;5014134;28;20452;-55
2021/04/29 09:16:45;;;;;;;23.23;11.93;;;11.50;70.00;;;12.64;100.00;65180.75;5014230;28;20042;-56
2021/04/29 09:19:26;;;;;;;185.40;42.38;;;11.40;72.80;;;-147.08;100.00;65180.75;5013752;28;20161;-53
2021/04/29 09:21:54;;;;;;;24.85;16.35;;;12.00;83.00;;;-147.08;100.00;65180.75;5013589;28;20050;-53
2021/04/29 09:24:36;;;;;;;24.80;15.45;;;11.60;73.10;;;-147.08;100.00;65180.75;4987617;28;20050;-52
2021/04/29 09:27:27;;;;;;;20.90;13.68;;;11.40;73.90;;;-147.08;100.00;65180.75;5008763;28;20054;-55
2021/04/29 09:30:04;;;;;;;17.58;10.07;;;11.70;73.40;;;12.46;nan;100192.72;5013784;28;20135;-51
2021/04/29 09:32:36;;;;;;;21.20;11.77;;;12.50;71.50;;;12.89;nan;100189.84;5013697;28;20042;-53
2021/04/29 09:35:08;;;;;;;21.20;10.75;;;12.90;69.00;;;12.61;nan;100188.94;5013803;28;20436;-54
2021/04/29 09:37:40;;;;;;;18.05;9.93;;;12.70;69.80;;;12.19;nan;100193.34;5012034;28;20411;-55
2021/04/29 09:40:16;;;;;;;18.17;8.07;;;12.40;71.00;;;11.89;nan;100205.50;5012971;28;20038;-52
2021/04/29 09:42:47;;;;;;;17.30;6.95;;;12.10;71.10;;;11.67;nan;100204.09;5013531;28;20034;-53
2021/04/29 09:45:35;;;;;;;19.23;12.60;;;12.00;71.70;;;11.51;nan;100202.63;4988374;28;20042;-54
2021/04/29 09:48:12;;;;;;;20.58;13.68;;;11.80;73.50;;;11.44;nan;100202.97;5013226;28;20064;-52
2021/04/29 09:50:43;;;;;;;17.33;10.33;;;11.80;74.30;;;11.30;nan;100205.59;5013316;28;20089;-52
2021/04/29 09:53:14;;;;;;;16.77;8.60;;;11.70;75.70;;;11.34;nan;100200.34;5013158;28;20038;-52
2021/04/29 09:55:44;;;;;;;18.23;12.68;;;11.70;74.70;;;11.34;nan;100210.44;5012904;28;20488;-54
2021/04/29 09:58:17;;;;;;;19.73;13.27;;;11.70;76.10;;;11.25;nan;100216.50;5013069;28;20514;-54
2021/04/29 10:00:49;;;;;;;22.13;14.05;;;11.70;75.80;;;11.09;nan;100213.13;5013465;28;20045;-55
2021/04/29 10:03:18;;;;;;;25.05;15.50;;;11.70;77.20;;;11.01;nan;100218.38;5013082;28;20049;-51
2021/04/29 10:05:46;;;;;;;20.27;14.13;;;11.50;78.50;;;10.88;nan;100219.84;5013091;28;20046;-51
2021/04/29 10:08:14;;;;;;;19.92;14.05;;;11.40;79.00;;;10.81;nan;100219.38;5012314;28;20042;-53
2021/04/29 10:10:48;;;;;;;17.63;11.60;;;11.40;79.10;;;10.82;nan;100223.69;5013359;28;20042;-54